sensor_id;sensor_type;location;lat;lon;timestamp;temperature;humidity
3850;DHT22;1940;51.052;13.678;2022-10-31T00:01:28;11.80;92.80
3850;DHT22;1940;51.052;13.678;2022-10-31T00:03:55;11.70;92.80
3850;DHT22;1940;51.052;13.678;2022-10-31T00:06:22;11.70;93.00
3850;DHT22;1940;51.052;13.678;2022-10-31T00:08:52;11.80;93.10
3850;DHT22;1940;51.052;13.678;2022-10-31T00:11:18;11.70;92.90
3850;DHT22;1940;51.052;13.678;2022-10-31T00:13:44;11.70;92.90
3850;DHT22;1940;51.052;13.678;2022-10-31T00:16:14;11.70;93.10
3850;DHT22;1940;51.052;13.678;2022-10-31T00:18:40;11.70;93.10
3850;DHT22;1940;51.052;13.678;2022-10-31T00:21:05;11.70;92.90
3850;DHT22;1940;51.052;13.678;2022-10-31T00:23:31;11.70;92.80
3850;DHT22;1940;51.052;13.678;2022-10-31T00:26:03;11.60;92.60
3850;DHT22;1940;51.052;13.678;2022-10-31T00:28:30;11.60;92.70
3850;DHT22;1940;51.052;13.678;2022-10-31T00:31:02;11.60;92.60
3850;DHT22;1940;51.052;13.678;2022-10-31T00:33:28;11.50;92.70
3850;DHT22;1940;51.052;13.678;2022-10-31T00:35:54;11.50;92.90
3850;DHT22;1940;51.052;13.678;2022-10-31T00:38:19;11.50;93.10
3850;DHT22;1940;51.052;13.678;2022-10-31T00:40:45;11.50;93.20
3850;DHT22;1940;51.052;13.678;2022-10-31T00:43:10;11.50;93.20
3850;DHT22;1940;51.052;13.678;2022-10-31T00:45:36;11.50;92.90
3850;DHT22;1940;51.052;13.678;2022-10-31T00:48:01;11.40;93.10
3850;DHT22;1940;51.052;13.678;2022-10-31T00:50:27;11.50;93.30
3850;DHT22;1940;51.052;13.678;2022-10-31T00:52:52;11.40;93.10
3850;DHT22;1940;51.052;13.678;2022-10-31T00:55:18;11.40;92.90
3850;DHT22;1940;51.052;13.678;2022-10-31T00:57:46;11.30;92.90
3850;DHT22;1940;51.052;13.678;2022-10-31T01:00:13;11.40;92.70
3850;DHT22;1940;51.052;13.678;2022-10-31T01:02:38;11.30;92.60
3850;DHT22;1940;51.052;13.678;2022-10-31T01:05:04;11.30;92.70
3850;DHT22;1940;51.052;13.678;2022-10-31T01:07:30;11.30;92.70
3850;DHT22;1940;51.052;13.678;2022-10-31T01:09:55;11.20;92.80
3850;DHT22;1940;51.052;13.678;2022-10-31T01:12:21;11.20;92.90
3850;DHT22;1940;51.052;13.678;2022-10-31T01:14:46;11.10;92.80
3850;DHT22;1940;51.052;13.678;2022-10-31T01:17:13;11.10;93.00
3850;DHT22;1940;51.052;13.678;2022-10-31T01:19:38;11.10;93.20
3850;DHT22;1940;51.052;13.678;2022-10-31T01:22:04;11.10;93.40
3850;DHT22;1940;51.052;13.678;2022-10-31T01:24:30;11.10;93.70
3850;DHT22;1940;51.052;13.678;2022-10-31T01:26:55;11.10;93.90
3850;DHT22;1940;51.052;13.678;2022-10-31T01:29:21;11.10;93.90
3850;DHT22;1940;51.052;13.678;2022-10-31T01:31:46;11.10;93.50
3850;DHT22;1940;51.052;13.678;2022-10-31T01:34:14;11.00;93.50
3850;DHT22;1940;51.052;13.678;2022-10-31T01:36:41;11.00;93.70
3850;DHT22;1940;51.052;13.678;2022-10-31T01:39:10;11.00;93.90
3850;DHT22;1940;51.052;13.678;2022-10-31T01:41:46;10.90;93.90
3850;DHT22;1940;51.052;13.678;2022-10-31T01:49:38;10.80;93.90
3850;DHT22;1940;51.052;13.678;2022-10-31T01:52:25;10.70;93.80
3850;DHT22;1940;51.052;13.678;2022-10-31T01:54:59;10.70;93.90
3850;DHT22;1940;51.052;13.678;2022-10-31T01:57:26;10.70;93.90
3850;DHT22;1940;51.052;13.678;2022-10-31T01:59:55;10.70;93.90
3850;DHT22;1940;51.052;13.678;2022-10-31T02:02:21;10.70;93.90
3850;DHT22;1940;51.052;13.678;2022-10-31T02:04:48;10.70;93.90
3850;DHT22;1940;51.052;13.678;2022-10-31T02:07:17;10.60;94.20
3850;DHT22;1940;51.052;13.678;2022-10-31T02:09:45;10.70;94.30
3850;DHT22;1940;51.052;13.678;2022-10-31T02:12:12;10.70;94.30
3850;DHT22;1940;51.052;13.678;2022-10-31T02:14:38;10.70;94.40
3850;DHT22;1940;51.052;13.678;2022-10-31T02:17:05;10.70;94.50
3850;DHT22;1940;51.052;13.678;2022-10-31T02:22:20;10.70;94.20
3850;DHT22;1940;51.052;13.678;2022-10-31T02:25:07;10.70;94.00
3850;DHT22;1940;51.052;13.678;2022-10-31T02:30:23;10.60;93.90
3850;DHT22;1940;51.052;13.678;2022-10-31T02:32:54;10.60;94.20
3850;DHT22;1940;51.052;13.678;2022-10-31T02:35:33;10.60;93.80
3850;DHT22;1940;51.052;13.678;2022-10-31T02:43:43;10.60;94.30
3850;DHT22;1940;51.052;13.678;2022-10-31T02:46:24;10.60;94.30
3850;DHT22;1940;51.052;13.678;2022-10-31T02:48:54;10.60;94.10
3850;DHT22;1940;51.052;13.678;2022-10-31T02:51:21;10.50;94.10
3850;DHT22;1940;51.052;13.678;2022-10-31T02:53:47;10.50;94.20
3850;DHT22;1940;51.052;13.678;2022-10-31T02:56:15;10.50;94.20
3850;DHT22;1940;51.052;13.678;2022-10-31T02:58:46;10.50;93.90
3850;DHT22;1940;51.052;13.678;2022-10-31T03:01:17;10.50;94.20
3850;DHT22;1940;51.052;13.678;2022-10-31T03:04:05;10.50;94.40
3850;DHT22;1940;51.052;13.678;2022-10-31T03:06:38;10.50;94.30
3850;DHT22;1940;51.052;13.678;2022-10-31T03:14:41;10.40;94.20
3850;DHT22;1940;51.052;13.678;2022-10-31T03:17:22;10.40;94.30
3850;DHT22;1940;51.052;13.678;2022-10-31T03:19:52;10.40;94.30
3850;DHT22;1940;51.052;13.678;2022-10-31T03:22:24;10.40;94.20
3850;DHT22;1940;51.052;13.678;2022-10-31T03:24:52;10.30;94.30
3850;DHT22;1940;51.052;13.678;2022-10-31T03:27:22;10.30;94.40
3850;DHT22;1940;51.052;13.678;2022-10-31T03:29:50;10.30;94.20
3850;DHT22;1940;51.052;13.678;2022-10-31T03:32:25;10.30;94.10
3850;DHT22;1940;51.052;13.678;2022-10-31T03:34:55;10.20;94.10
3850;DHT22;1940;51.052;13.678;2022-10-31T03:37:24;10.30;94.30
3850;DHT22;1940;51.052;13.678;2022-10-31T03:39:51;10.20;94.20
3850;DHT22;1940;51.052;13.678;2022-10-31T03:42:21;10.20;94.10
3850;DHT22;1940;51.052;13.678;2022-10-31T03:47:21;10.10;94.10
3850;DHT22;1940;51.052;13.678;2022-10-31T03:49:47;10.20;94.50
3850;DHT22;1940;51.052;13.678;2022-10-31T03:54:59;10.10;94.30
3850;DHT22;1940;51.052;13.678;2022-10-31T03:57:51;10.10;94.10
3850;DHT22;1940;51.052;13.678;2022-10-31T04:00:18;10.20;94.30
3850;DHT22;1940;51.052;13.678;2022-10-31T04:05:17;10.10;94.50
3850;DHT22;1940;51.052;13.678;2022-10-31T04:07:47;10.10;94.50
3850;DHT22;1940;51.052;13.678;2022-10-31T04:10:16;10.10;94.30
3850;DHT22;1940;51.052;13.678;2022-10-31T04:12:44;10.10;94.20
3850;DHT22;1940;51.052;13.678;2022-10-31T04:15:12;10.10;94.50
3850;DHT22;1940;51.052;13.678;2022-10-31T04:17:40;10.10;94.50
3850;DHT22;1940;51.052;13.678;2022-10-31T04:20:08;10.10;94.50
3850;DHT22;1940;51.052;13.678;2022-10-31T04:22:34;10.10;94.60
3850;DHT22;1940;51.052;13.678;2022-10-31T04:25:00;10.10;94.20
3850;DHT22;1940;51.052;13.678;2022-10-31T04:27:25;10.10;94.30
3850;DHT22;1940;51.052;13.678;2022-10-31T04:29:51;10.10;94.30
3850;DHT22;1940;51.052;13.678;2022-10-31T04:32:16;10.10;94.30
3850;DHT22;1940;51.052;13.678;2022-10-31T04:34:42;10.00;94.00
3850;DHT22;1940;51.052;13.678;2022-10-31T04:37:07;10.00;94.30
3850;DHT22;1940;51.052;13.678;2022-10-31T04:39:33;10.00;94.30
3850;DHT22;1940;51.052;13.678;2022-10-31T04:41:58;9.90;94.40
3850;DHT22;1940;51.052;13.678;2022-10-31T04:44:24;9.90;94.40
3850;DHT22;1940;51.052;13.678;2022-10-31T04:46:49;9.90;94.50
3850;DHT22;1940;51.052;13.678;2022-10-31T04:49:15;9.90;94.40
3850;DHT22;1940;51.052;13.678;2022-10-31T04:51:40;9.90;94.60
3850;DHT22;1940;51.052;13.678;2022-10-31T04:54:06;9.80;94.50
3850;DHT22;1940;51.052;13.678;2022-10-31T04:56:32;9.80;94.60
3850;DHT22;1940;51.052;13.678;2022-10-31T04:58:57;9.80;94.60
3850;DHT22;1940;51.052;13.678;2022-10-31T05:01:23;9.80;94.60
3850;DHT22;1940;51.052;13.678;2022-10-31T05:03:48;9.80;94.60
3850;DHT22;1940;51.052;13.678;2022-10-31T05:06:14;9.80;94.70
3850;DHT22;1940;51.052;13.678;2022-10-31T05:08:41;9.80;94.70
3850;DHT22;1940;51.052;13.678;2022-10-31T05:11:07;9.80;94.50
3850;DHT22;1940;51.052;13.678;2022-10-31T05:13:32;9.70;94.40
3850;DHT22;1940;51.052;13.678;2022-10-31T05:15:58;9.70;94.30
3850;DHT22;1940;51.052;13.678;2022-10-31T05:18:23;9.60;94.30
3850;DHT22;1940;51.052;13.678;2022-10-31T05:20:49;9.70;94.50
3850;DHT22;1940;51.052;13.678;2022-10-31T05:23:14;9.60;94.40
3850;DHT22;1940;51.052;13.678;2022-10-31T05:25:40;9.60;94.40
3850;DHT22;1940;51.052;13.678;2022-10-31T05:28:06;9.60;94.50
3850;DHT22;1940;51.052;13.678;2022-10-31T05:30:33;9.60;94.50
3850;DHT22;1940;51.052;13.678;2022-10-31T05:32:59;9.60;94.60
3850;DHT22;1940;51.052;13.678;2022-10-31T05:35:28;9.60;94.70
3850;DHT22;1940;51.052;13.678;2022-10-31T05:37:53;9.60;94.50
3850;DHT22;1940;51.052;13.678;2022-10-31T05:40:20;9.50;94.70
3850;DHT22;1940;51.052;13.678;2022-10-31T05:42:46;9.50;94.60
3850;DHT22;1940;51.052;13.678;2022-10-31T05:45:14;9.50;94.50
3850;DHT22;1940;51.052;13.678;2022-10-31T05:47:41;9.50;94.40
3850;DHT22;1940;51.052;13.678;2022-10-31T05:50:08;9.50;94.70
3850;DHT22;1940;51.052;13.678;2022-10-31T05:52:34;9.50;94.50
3850;DHT22;1940;51.052;13.678;2022-10-31T05:55:00;9.50;94.50
3850;DHT22;1940;51.052;13.678;2022-10-31T05:57:25;9.50;94.40
3850;DHT22;1940;51.052;13.678;2022-10-31T05:59:51;9.50;94.50
3850;DHT22;1940;51.052;13.678;2022-10-31T06:02:19;9.50;94.40
3850;DHT22;1940;51.052;13.678;2022-10-31T06:04:45;9.50;94.40
3850;DHT22;1940;51.052;13.678;2022-10-31T06:07:12;9.60;94.30
3850;DHT22;1940;51.052;13.678;2022-10-31T06:09:38;9.60;94.10
3850;DHT22;1940;51.052;13.678;2022-10-31T06:12:12;9.60;94.20
3850;DHT22;1940;51.052;13.678;2022-10-31T06:14:38;9.60;94.30
3850;DHT22;1940;51.052;13.678;2022-10-31T06:17:03;9.60;94.30
3850;DHT22;1940;51.052;13.678;2022-10-31T06:19:29;9.60;94.30
3850;DHT22;1940;51.052;13.678;2022-10-31T06:21:54;9.60;94.20
3850;DHT22;1940;51.052;13.678;2022-10-31T06:24:20;9.70;94.00
3850;DHT22;1940;51.052;13.678;2022-10-31T06:26:45;9.70;93.90
3850;DHT22;1940;51.052;13.678;2022-10-31T06:29:11;9.70;94.00
3850;DHT22;1940;51.052;13.678;2022-10-31T06:31:36;9.80;94.00
3850;DHT22;1940;51.052;13.678;2022-10-31T06:34:02;9.90;94.00
3850;DHT22;1940;51.052;13.678;2022-10-31T06:36:27;9.90;93.80
3850;DHT22;1940;51.052;13.678;2022-10-31T06:38:53;10.00;93.60
3850;DHT22;1940;51.052;13.678;2022-10-31T06:41:18;10.00;93.40
3850;DHT22;1940;51.052;13.678;2022-10-31T06:43:46;10.10;93.50
3850;DHT22;1940;51.052;13.678;2022-10-31T06:46:12;10.10;93.50
3850;DHT22;1940;51.052;13.678;2022-10-31T06:48:37;10.20;93.60
3850;DHT22;1940;51.052;13.678;2022-10-31T06:51:03;10.30;93.50
3850;DHT22;1940;51.052;13.678;2022-10-31T06:53:29;10.40;93.20
3850;DHT22;1940;51.052;13.678;2022-10-31T06:55:58;10.40;93.00
3850;DHT22;1940;51.052;13.678;2022-10-31T06:58:23;10.50;93.00
3850;DHT22;1940;51.052;13.678;2022-10-31T07:00:49;10.60;92.90
3850;DHT22;1940;51.052;13.678;2022-10-31T07:03:15;10.70;92.80
3850;DHT22;1940;51.052;13.678;2022-10-31T07:05:41;10.70;92.80
3850;DHT22;1940;51.052;13.678;2022-10-31T07:08:09;10.80;92.60
3850;DHT22;1940;51.052;13.678;2022-10-31T07:10:36;10.90;92.40
3850;DHT22;1940;51.052;13.678;2022-10-31T07:13:06;11.00;92.20
3850;DHT22;1940;51.052;13.678;2022-10-31T07:15:37;11.10;92.00
3850;DHT22;1940;51.052;13.678;2022-10-31T07:18:04;11.20;91.60
3850;DHT22;1940;51.052;13.678;2022-10-31T07:20:31;11.20;91.40
3850;DHT22;1940;51.052;13.678;2022-10-31T07:22:56;11.20;91.50
3850;DHT22;1940;51.052;13.678;2022-10-31T07:25:22;11.30;91.30
3850;DHT22;1940;51.052;13.678;2022-10-31T07:27:48;11.50;91.00
3850;DHT22;1940;51.052;13.678;2022-10-31T07:30:15;11.50;90.80
3850;DHT22;1940;51.052;13.678;2022-10-31T07:35:12;11.80;90.30
3850;DHT22;1940;51.052;13.678;2022-10-31T07:37:38;12.00;89.80
3850;DHT22;1940;51.052;13.678;2022-10-31T07:40:05;12.30;89.40
3850;DHT22;1940;51.052;13.678;2022-10-31T07:45:03;12.90;87.60
3850;DHT22;1940;51.052;13.678;2022-10-31T07:47:28;13.30;86.20
3850;DHT22;1940;51.052;13.678;2022-10-31T07:49:54;13.80;85.60
3850;DHT22;1940;51.052;13.678;2022-10-31T07:52:19;14.90;84.10
3850;DHT22;1940;51.052;13.678;2022-10-31T07:54:45;16.30;79.80
3850;DHT22;1940;51.052;13.678;2022-10-31T07:57:10;17.70;75.50
3850;DHT22;1940;51.052;13.678;2022-10-31T07:59:36;18.90;71.50
3850;DHT22;1940;51.052;13.678;2022-10-31T08:02:01;20.40;68.60
3850;DHT22;1940;51.052;13.678;2022-10-31T08:04:27;21.30;64.10
3850;DHT22;1940;51.052;13.678;2022-10-31T08:06:52;21.60;63.30
3850;DHT22;1940;51.052;13.678;2022-10-31T08:09:18;22.50;61.00
3850;DHT22;1940;51.052;13.678;2022-10-31T08:11:43;22.70;59.60
3850;DHT22;1940;51.052;13.678;2022-10-31T08:14:09;22.90;59.60
3850;DHT22;1940;51.052;13.678;2022-10-31T08:16:34;23.60;58.50
3850;DHT22;1940;51.052;13.678;2022-10-31T08:19:00;24.60;56.90
3850;DHT22;1940;51.052;13.678;2022-10-31T08:21:26;25.80;54.10
3850;DHT22;1940;51.052;13.678;2022-10-31T08:23:51;25.80;53.70
3850;DHT22;1940;51.052;13.678;2022-10-31T08:26:17;26.70;52.30
3850;DHT22;1940;51.052;13.678;2022-10-31T08:28:42;27.50;51.10
3850;DHT22;1940;51.052;13.678;2022-10-31T08:31:08;27.90;49.90
3850;DHT22;1940;51.052;13.678;2022-10-31T08:33:35;27.90;49.70
3850;DHT22;1940;51.052;13.678;2022-10-31T08:36:00;27.80;50.00
3850;DHT22;1940;51.052;13.678;2022-10-31T08:38:26;28.40;49.00
3850;DHT22;1940;51.052;13.678;2022-10-31T08:40:51;28.30;49.40
3850;DHT22;1940;51.052;13.678;2022-10-31T08:43:18;29.30;48.30
3850;DHT22;1940;51.052;13.678;2022-10-31T08:45:47;30.30;46.30
3850;DHT22;1940;51.052;13.678;2022-10-31T08:48:14;30.20;46.60
3850;DHT22;1940;51.052;13.678;2022-10-31T08:50:41;30.70;46.20
3850;DHT22;1940;51.052;13.678;2022-10-31T08:53:12;31.80;45.20
3850;DHT22;1940;51.052;13.678;2022-10-31T08:55:38;32.20;43.90
3850;DHT22;1940;51.052;13.678;2022-10-31T08:58:06;32.10;43.30
3850;DHT22;1940;51.052;13.678;2022-10-31T09:00:33;31.70;43.70
3850;DHT22;1940;51.052;13.678;2022-10-31T09:03:04;31.00;45.00
3850;DHT22;1940;51.052;13.678;2022-10-31T09:05:30;31.90;43.90
3850;DHT22;1940;51.052;13.678;2022-10-31T09:07:57;32.40;43.60
3850;DHT22;1940;51.052;13.678;2022-10-31T09:10:24;32.50;43.20
3850;DHT22;1940;51.052;13.678;2022-10-31T09:12:55;32.20;43.50
3850;DHT22;1940;51.052;13.678;2022-10-31T09:15:21;32.10;43.10
3850;DHT22;1940;51.052;13.678;2022-10-31T09:17:48;32.10;43.50
3850;DHT22;1940;51.052;13.678;2022-10-31T09:20:13;32.20;43.70
3850;DHT22;1940;51.052;13.678;2022-10-31T09:22:39;32.60;42.90
3850;DHT22;1940;51.052;13.678;2022-10-31T09:25:04;32.70;42.80
3850;DHT22;1940;51.052;13.678;2022-10-31T09:27:30;33.00;42.90
3850;DHT22;1940;51.052;13.678;2022-10-31T09:29:56;33.70;42.10
3850;DHT22;1940;51.052;13.678;2022-10-31T09:32:21;33.70;41.40
3850;DHT22;1940;51.052;13.678;2022-10-31T09:34:47;33.70;41.60
3850;DHT22;1940;51.052;13.678;2022-10-31T09:37:12;33.60;41.80
3850;DHT22;1940;51.052;13.678;2022-10-31T09:39:38;33.90;41.40
3850;DHT22;1940;51.052;13.678;2022-10-31T09:44:47;32.70;42.70
3850;DHT22;1940;51.052;13.678;2022-10-31T09:47:33;32.30;43.40
3850;DHT22;1940;51.052;13.678;2022-10-31T09:50:25;31.70;44.20
3850;DHT22;1940;51.052;13.678;2022-10-31T09:55:36;32.40;43.40
3850;DHT22;1940;51.052;13.678;2022-10-31T09:58:03;32.30;44.20
3850;DHT22;1940;51.052;13.678;2022-10-31T10:00:28;31.70;44.10
3850;DHT22;1940;51.052;13.678;2022-10-31T10:03:19;30.80;45.40
3850;DHT22;1940;51.052;13.678;2022-10-31T10:05:59;30.20;45.90
3850;DHT22;1940;51.052;13.678;2022-10-31T10:08:30;30.10;46.30
3850;DHT22;1940;51.052;13.678;2022-10-31T10:11:24;30.20;46.30
3850;DHT22;1940;51.052;13.678;2022-10-31T10:14:04;30.50;46.40
3850;DHT22;1940;51.052;13.678;2022-10-31T10:23:02;30.90;45.70
3850;DHT22;1940;51.052;13.678;2022-10-31T10:25:38;31.10;45.40
3850;DHT22;1940;51.052;13.678;2022-10-31T10:28:26;31.40;45.00
3850;DHT22;1940;51.052;13.678;2022-10-31T10:31:07;31.10;45.50
3850;DHT22;1940;51.052;13.678;2022-10-31T10:33:39;31.00;45.60
3850;DHT22;1940;51.052;13.678;2022-10-31T10:36:12;31.40;45.30
3850;DHT22;1940;51.052;13.678;2022-10-31T10:38:57;31.70;44.60
3850;DHT22;1940;51.052;13.678;2022-10-31T10:41:26;32.00;44.50
3850;DHT22;1940;51.052;13.678;2022-10-31T10:43:52;32.30;44.20
3850;DHT22;1940;51.052;13.678;2022-10-31T10:46:40;32.60;43.80
3850;DHT22;1940;51.052;13.678;2022-10-31T10:49:45;32.30;44.40
3850;DHT22;1940;51.052;13.678;2022-10-31T10:52:46;32.30;44.40
3850;DHT22;1940;51.052;13.678;2022-10-31T10:58:00;30.80;46.10
3850;DHT22;1940;51.052;13.678;2022-10-31T11:00:30;31.20;45.60
3850;DHT22;1940;51.052;13.678;2022-10-31T11:02:57;31.40;45.60
3850;DHT22;1940;51.052;13.678;2022-10-31T11:05:38;31.50;45.50
3850;DHT22;1940;51.052;13.678;2022-10-31T11:08:05;31.30;46.20
3850;DHT22;1940;51.052;13.678;2022-10-31T11:10:31;31.60;45.50
3850;DHT22;1940;51.052;13.678;2022-10-31T11:16:01;32.00;45.10
3850;DHT22;1940;51.052;13.678;2022-10-31T11:18:34;31.90;45.50
3850;DHT22;1940;51.052;13.678;2022-10-31T11:21:02;32.70;44.50
3850;DHT22;1940;51.052;13.678;2022-10-31T11:23:29;32.80;44.20
3850;DHT22;1940;51.052;13.678;2022-10-31T11:26:00;33.10;44.10
3850;DHT22;1940;51.052;13.678;2022-10-31T11:28:27;33.50;43.20
3850;DHT22;1940;51.052;13.678;2022-10-31T11:30:58;33.30;43.60
3850;DHT22;1940;51.052;13.678;2022-10-31T11:33:47;32.10;45.00
3850;DHT22;1940;51.052;13.678;2022-10-31T11:36:37;31.50;45.80
3850;DHT22;1940;51.052;13.678;2022-10-31T11:39:04;31.40;45.90
3850;DHT22;1940;51.052;13.678;2022-10-31T11:41:33;30.70;47.20
3850;DHT22;1940;51.052;13.678;2022-10-31T11:44:11;30.70;47.50
3850;DHT22;1940;51.052;13.678;2022-10-31T11:46:41;31.20;46.50
3850;DHT22;1940;51.052;13.678;2022-10-31T11:49:25;31.00;46.30
3850;DHT22;1940;51.052;13.678;2022-10-31T11:51:55;30.40;47.10
3850;DHT22;1940;51.052;13.678;2022-10-31T11:54:29;30.20;47.40
3850;DHT22;1940;51.052;13.678;2022-10-31T11:56:55;29.40;48.80
3850;DHT22;1940;51.052;13.678;2022-10-31T11:59:30;27.80;51.20
3850;DHT22;1940;51.052;13.678;2022-10-31T12:01:58;27.40;52.10
3850;DHT22;1940;51.052;13.678;2022-10-31T12:07:02;26.10;53.90
3850;DHT22;1940;51.052;13.678;2022-10-31T12:09:29;25.40;55.30
3850;DHT22;1940;51.052;13.678;2022-10-31T12:21:24;23.50;59.40
3850;DHT22;1940;51.052;13.678;2022-10-31T12:26:18;22.70;61.70
3850;DHT22;1940;51.052;13.678;2022-10-31T12:37:40;21.90;63.50
3850;DHT22;1940;51.052;13.678;2022-10-31T12:40:22;21.60;64.40
3850;DHT22;1940;51.052;13.678;2022-10-31T12:45:52;21.00;65.90
3850;DHT22;1940;51.052;13.678;2022-10-31T12:54:37;20.90;66.50
3850;DHT22;1940;51.052;13.678;2022-10-31T13:05:48;21.00;66.50
3850;DHT22;1940;51.052;13.678;2022-10-31T13:08:14;21.00;66.10
3850;DHT22;1940;51.052;13.678;2022-10-31T13:10:45;21.10;66.00
3850;DHT22;1940;51.052;13.678;2022-10-31T13:16:01;21.00;66.30
3850;DHT22;1940;51.052;13.678;2022-10-31T13:18:38;21.00;66.60
3850;DHT22;1940;51.052;13.678;2022-10-31T13:21:11;21.10;66.30
3850;DHT22;1940;51.052;13.678;2022-10-31T13:23:39;21.10;66.10
3850;DHT22;1940;51.052;13.678;2022-10-31T13:29:43;21.00;66.60
3850;DHT22;1940;51.052;13.678;2022-10-31T13:32:04;20.90;66.70
3850;DHT22;1940;51.052;13.678;2022-10-31T13:45:56;21.10;66.10
3850;DHT22;1940;51.052;13.678;2022-10-31T13:50:59;21.00;66.30
3850;DHT22;1940;51.052;13.678;2022-10-31T13:53:39;21.00;66.60
3850;DHT22;1940;51.052;13.678;2022-10-31T13:56:14;20.90;66.90
3850;DHT22;1940;51.052;13.678;2022-10-31T13:58:56;20.90;66.90
3850;DHT22;1940;51.052;13.678;2022-10-31T14:01:23;21.00;66.80
3850;DHT22;1940;51.052;13.678;2022-10-31T14:03:58;21.00;66.80
3850;DHT22;1940;51.052;13.678;2022-10-31T14:06:59;21.00;66.50
3850;DHT22;1940;51.052;13.678;2022-10-31T14:09:33;21.00;66.50
3850;DHT22;1940;51.052;13.678;2022-10-31T14:12:25;21.00;66.70
3850;DHT22;1940;51.052;13.678;2022-10-31T14:14:56;21.00;66.30
3850;DHT22;1940;51.052;13.678;2022-10-31T14:17:25;21.00;66.30
3850;DHT22;1940;51.052;13.678;2022-10-31T14:20:42;20.90;66.60
3850;DHT22;1940;51.052;13.678;2022-10-31T14:22:48;20.70;67.20
3850;DHT22;1940;51.052;13.678;2022-10-31T14:25:34;20.80;66.90
3850;DHT22;1940;51.052;13.678;2022-10-31T14:28:03;20.70;67.00
3850;DHT22;1940;51.052;13.678;2022-10-31T14:30:52;20.60;67.30
3850;DHT22;1940;51.052;13.678;2022-10-31T14:33:19;20.60;67.20
3850;DHT22;1940;51.052;13.678;2022-10-31T14:49:35;20.20;68.20
3850;DHT22;1940;51.052;13.678;2022-10-31T14:52:06;20.20;68.40
3850;DHT22;1940;51.052;13.678;2022-10-31T14:54:43;20.20;68.60
3850;DHT22;1940;51.052;13.678;2022-10-31T14:57:18;20.10;69.20
3850;DHT22;1940;51.052;13.678;2022-10-31T14:59:50;20.00;70.10
3850;DHT22;1940;51.052;13.678;2022-10-31T15:05:15;19.80;71.20
3850;DHT22;1940;51.052;13.678;2022-10-31T15:07:52;19.70;71.90
3850;DHT22;1940;51.052;13.678;2022-10-31T15:10:24;19.60;72.50
3850;DHT22;1940;51.052;13.678;2022-10-31T15:12:51;19.40;72.70
3850;DHT22;1940;51.052;13.678;2022-10-31T15:15:23;19.30;73.20
3850;DHT22;1940;51.052;13.678;2022-10-31T15:17:55;19.20;73.70
3850;DHT22;1940;51.052;13.678;2022-10-31T15:20:24;19.10;74.20
3850;DHT22;1940;51.052;13.678;2022-10-31T15:22:51;19.00;74.80
3850;DHT22;1940;51.052;13.678;2022-10-31T15:25:21;19.00;75.20
3850;DHT22;1940;51.052;13.678;2022-10-31T15:27:52;18.90;75.30
3850;DHT22;1940;51.052;13.678;2022-10-31T15:30:26;18.70;75.80
3850;DHT22;1940;51.052;13.678;2022-10-31T15:32:52;18.60;76.20
3850;DHT22;1940;51.052;13.678;2022-10-31T15:35:21;18.50;76.50
3850;DHT22;1940;51.052;13.678;2022-10-31T15:37:47;18.30;76.90
3850;DHT22;1940;51.052;13.678;2022-10-31T15:40:18;18.20;77.40
3850;DHT22;1940;51.052;13.678;2022-10-31T15:42:51;18.00;77.80
3850;DHT22;1940;51.052;13.678;2022-10-31T15:45:19;17.90;78.00
3850;DHT22;1940;51.052;13.678;2022-10-31T15:47:59;17.80;78.40
3850;DHT22;1940;51.052;13.678;2022-10-31T15:50:35;17.70;78.70
3850;DHT22;1940;51.052;13.678;2022-10-31T15:53:04;17.50;78.80
3850;DHT22;1940;51.052;13.678;2022-10-31T15:55:35;17.40;79.40
3850;DHT22;1940;51.052;13.678;2022-10-31T15:58:09;17.30;79.80
3850;DHT22;1940;51.052;13.678;2022-10-31T16:00:37;17.30;79.80
3850;DHT22;1940;51.052;13.678;2022-10-31T16:13:39;16.80;81.20
3850;DHT22;1940;51.052;13.678;2022-10-31T16:16:14;16.70;81.60
3850;DHT22;1940;51.052;13.678;2022-10-31T16:18:41;16.60;82.00
3850;DHT22;1940;51.052;13.678;2022-10-31T16:21:07;16.50;82.20
3850;DHT22;1940;51.052;13.678;2022-10-31T16:23:34;16.40;82.50
3850;DHT22;1940;51.052;13.678;2022-10-31T16:26:00;16.40;82.50
3850;DHT22;1940;51.052;13.678;2022-10-31T16:28:30;16.40;82.50
3850;DHT22;1940;51.052;13.678;2022-10-31T16:30:57;16.30;83.00
3850;DHT22;1940;51.052;13.678;2022-10-31T16:33:33;16.30;83.00
3850;DHT22;1940;51.052;13.678;2022-10-31T16:38:46;16.30;82.70
3850;DHT22;1940;51.052;13.678;2022-10-31T16:41:11;16.30;82.60
3850;DHT22;1940;51.052;13.678;2022-10-31T16:43:37;16.20;82.60
3850;DHT22;1940;51.052;13.678;2022-10-31T16:46:03;16.20;82.70
3850;DHT22;1940;51.052;13.678;2022-10-31T16:48:29;16.20;82.80
3850;DHT22;1940;51.052;13.678;2022-10-31T16:50:54;16.20;82.70
3850;DHT22;1940;51.052;13.678;2022-10-31T16:53:20;16.20;82.60
3850;DHT22;1940;51.052;13.678;2022-10-31T16:55:55;16.10;82.80
3850;DHT22;1940;51.052;13.678;2022-10-31T16:58:24;16.10;82.80
3850;DHT22;1940;51.052;13.678;2022-10-31T17:00:50;16.00;83.10
3850;DHT22;1940;51.052;13.678;2022-10-31T17:03:16;15.90;83.40
3850;DHT22;1940;51.052;13.678;2022-10-31T17:05:42;15.90;83.50
3850;DHT22;1940;51.052;13.678;2022-10-31T17:08:07;15.80;83.80
3850;DHT22;1940;51.052;13.678;2022-10-31T17:10:34;15.80;83.70
3850;DHT22;1940;51.052;13.678;2022-10-31T17:13:00;15.80;83.70
3850;DHT22;1940;51.052;13.678;2022-10-31T17:15:28;15.80;83.70
3850;DHT22;1940;51.052;13.678;2022-10-31T17:17:57;15.80;83.80
3850;DHT22;1940;51.052;13.678;2022-10-31T17:20:26;15.70;83.90
3850;DHT22;1940;51.052;13.678;2022-10-31T17:22:52;15.70;83.90
3850;DHT22;1940;51.052;13.678;2022-10-31T17:25:20;15.60;84.00
3850;DHT22;1940;51.052;13.678;2022-10-31T17:27:47;15.60;84.10
3850;DHT22;1940;51.052;13.678;2022-10-31T17:30:13;15.50;84.40
3850;DHT22;1940;51.052;13.678;2022-10-31T17:32:41;15.50;84.50
3850;DHT22;1940;51.052;13.678;2022-10-31T17:35:08;15.40;84.60
3850;DHT22;1940;51.052;13.678;2022-10-31T17:37:34;15.50;84.40
3850;DHT22;1940;51.052;13.678;2022-10-31T17:40:00;15.40;84.50
3850;DHT22;1940;51.052;13.678;2022-10-31T17:42:54;15.30;84.80
3850;DHT22;1940;51.052;13.678;2022-10-31T17:45:21;15.30;85.10
3850;DHT22;1940;51.052;13.678;2022-10-31T17:47:48;15.30;85.10
3850;DHT22;1940;51.052;13.678;2022-10-31T17:50:15;15.20;85.20
3850;DHT22;1940;51.052;13.678;2022-10-31T17:52:41;15.20;85.40
3850;DHT22;1940;51.052;13.678;2022-10-31T17:55:07;15.10;85.60
3850;DHT22;1940;51.052;13.678;2022-10-31T17:57:34;15.10;85.70
3850;DHT22;1940;51.052;13.678;2022-10-31T18:00:00;15.10;85.70
3850;DHT22;1940;51.052;13.678;2022-10-31T18:02:26;15.10;85.70
3850;DHT22;1940;51.052;13.678;2022-10-31T18:04:51;15.10;85.80
3850;DHT22;1940;51.052;13.678;2022-10-31T18:07:17;15.10;85.70
3850;DHT22;1940;51.052;13.678;2022-10-31T18:09:46;15.00;85.90
3850;DHT22;1940;51.052;13.678;2022-10-31T18:12:13;15.00;86.00
3850;DHT22;1940;51.052;13.678;2022-10-31T18:14:39;15.00;86.20
3850;DHT22;1940;51.052;13.678;2022-10-31T18:17:05;15.00;86.20
3850;DHT22;1940;51.052;13.678;2022-10-31T18:19:31;15.00;86.20
3850;DHT22;1940;51.052;13.678;2022-10-31T18:21:56;15.00;86.20
3850;DHT22;1940;51.052;13.678;2022-10-31T18:24:22;14.90;86.30